Terminal Aerodrome Forecast
Issued by NWS Tuscon, AZ

Home | Current Version | Previous Version | Text Only | Print | Product List | Glossary On
Versions: 1 2 3 4 5 6 7 8 9 10 11 12 13
144
FTUS45 KTWC 222328
TAFDUG
TAF
KDUG 222328Z 2300/2324 21007KT P6SM VCSH BKN070
     FM230200 17013G21KT P6SM VCSH BKN080 BKN110
     FM230500 14008KT P6SM SCT080 BKN120 BKN180
     FM232000 20008KT P6SM VCSH BKN060 BKN150=

USA.gov is the U.S. government's official web portal to all federal, state and local government web resources and services.